Celine — HBEF — position and weather

sailwx.info

Track history (hours):
 
Tides and Currents Weather Stations Pressure Air Temp Water Temp Dewpoint Dewpoint Depression Visibility Wind Speed Wind Dir Waves Ship Positions

Celine

Last reported at 2017-Jan-15 11:31 UTC. Time now 2017-Jan-23 17:01 UTC.
Position N 37°46' W 009°50'.
Warning: this ship's position is 8 days out of date.

Length 129 m; draft 7.4 m.

Type: Cargo ship. MMSI: 269057000.

Date/timePositionNaut miles runAvg speedWind from/ knotsBaromVisibWave heightAir tempDewpointWater temp
2017-Jan-15 11:31N 37°46' W 009°50'1212.7
2017-Jan-15 10:33N 37°58' W 009°53'1313.1
2017-Jan-15 09:33N 38°11' W 009°57'1313.1
2017-Jan-15 08:33N 38°24' W 010°01'1312.8
2017-Jan-15 07:33N 38°36' W 010°05'1010.1
2017-Jan-15 06:34N 38°46' W 010°06'1313.4
2017-Jan-15 05:33N 38°59' W 010°05'1313.1
2017-Jan-15 04:33N 39°13' W 010°06'1313.2
2017-Jan-15 03:34N 39°26' W 010°06'  
2017-Jan-11 14:33N 50°09' W 002°02'1312.9
2017-Jan-11 13:33N 50°03' W 001°44'1313.3
2017-Jan-11 12:34N 49°56' W 001°26'1514.9
2017-Jan-11 11:33N 49°49' W 001°05'1413.6
2017-Jan-11 10:34N 49°43' W 000°47'1212.1
2017-Jan-11 09:33N 49°37' W 000°30'1111.4
2017-Jan-11 08:34N 49°32' W 000°15'1111.0
2017-Jan-11 07:33N 49°27' E 000°00'10 9.7
2017-Jan-11 06:33N 49°26' E 000°15'8 7.7
2017-Jan-11 05:33N 49°28' E 000°26'8 7.7
2017-Jan-11 04:33N 49°26' E 000°38'7 6.8
2017-Jan-11 03:33N 49°29' E 000°48'5 4.4
2017-Jan-11 02:25N 49°29' E 000°56'  
2017-Jan-07 16:33N 49°28' E 000°56'4 4.4
2017-Jan-07 15:32N 49°27' E 000°49'7 7.0
2017-Jan-07 14:33N 49°27' E 000°39'1010.3
2017-Jan-07 13:33N 49°27' E 000°23'1313.1
2017-Jan-07 12:33N 49°27' E 000°03'6 5.4
2017-Jan-07 11:32N 49°28' W 000°06'0 0.0
2017-Jan-07 10:32N 49°28' W 000°06'0 0.0
2017-Jan-07 09:32N 49°28' W 000°06'0 0.0
2017-Jan-07 08:32N 49°28' W 000°06'0 0.0
2017-Jan-07 07:32N 49°28' W 000°06'0 0.0
2017-Jan-07 06:32N 49°28' W 000°06'3 3.2
2017-Jan-07 05:33N 49°30' W 000°10'1111.1
2017-Jan-07 04:33N 49°34' W 000°25'1110.8
2017-Jan-07 03:33N 49°39' W 000°41'1010.2
2017-Jan-07 02:33N 49°43' W 000°55'1010.4
2017-Jan-07 01:33N 49°47' W 001°09'1111.4
2017-Jan-07 00:33N 49°52' W 001°25'1110.9
2017-Jan-06 23:33N 49°54' W 001°42'1111.5
2017-Jan-06 22:33N 49°54' W 001°60'3310.8
2017-Jan-06 19:32N 49°49' W 002°50'1210.7
2017-Jan-06 18:25N 49°43' W 003°06'910.3
2017-Jan-06 17:33N 49°38' W 003°18'6610.8
2017-Jan-06 11:28N 49°06' W 004°46'1011.0
2017-Jan-06 10:33N 49°01' W 004°59'1212.2
2017-Jan-06 09:33N 48°55' W 005°15'1212.4
2017-Jan-06 08:33N 48°49' W 005°32'3013.0
2017-Jan-06 06:15N 48°23' W 005°55'  
Track history (hours):
 
Tides and Currents Weather Stations Pressure Air Temp Water Temp Dewpoint Dewpoint Depression Visibility Wind Speed Wind Dir Waves Ship Positions

Celine

Last reported at 2017-Jan-15 11:31 UTC. Time now 2017-Jan-23 17:01 UTC.
Position N 37°46' W 009°50'.
Warning: this ship's position is 8 days out of date.

Length 129 m; draft 7.4 m.

Type: Cargo ship. MMSI: 269057000.

Date/timePositionNaut miles runAvg speedWind from/ knotsBaromVisibWave heightAir tempDewpointWater temp
2017-Jan-15 11:31N 37°46' W 009°50'1212.7
2017-Jan-15 10:33N 37°58' W 009°53'1313.1
2017-Jan-15 09:33N 38°11' W 009°57'1313.1
2017-Jan-15 08:33N 38°24' W 010°01'1312.8
2017-Jan-15 07:33N 38°36' W 010°05'1010.1
2017-Jan-15 06:34N 38°46' W 010°06'1313.4
2017-Jan-15 05:33N 38°59' W 010°05'1313.1
2017-Jan-15 04:33N 39°13' W 010°06'1313.2
2017-Jan-15 03:34N 39°26' W 010°06'  
2017-Jan-11 14:33N 50°09' W 002°02'1312.9
2017-Jan-11 13:33N 50°03' W 001°44'1313.3
2017-Jan-11 12:34N 49°56' W 001°26'1514.9
2017-Jan-11 11:33N 49°49' W 001°05'1413.6
2017-Jan-11 10:34N 49°43' W 000°47'1212.1
2017-Jan-11 09:33N 49°37' W 000°30'1111.4
2017-Jan-11 08:34N 49°32' W 000°15'1111.0
2017-Jan-11 07:33N 49°27' E 000°00'10 9.7
2017-Jan-11 06:33N 49°26' E 000°15'8 7.7
2017-Jan-11 05:33N 49°28' E 000°26'8 7.7
2017-Jan-11 04:33N 49°26' E 000°38'7 6.8
2017-Jan-11 03:33N 49°29' E 000°48'5 4.4
2017-Jan-11 02:25N 49°29' E 000°56'  
2017-Jan-07 16:33N 49°28' E 000°56'4 4.4
2017-Jan-07 15:32N 49°27' E 000°49'7 7.0
2017-Jan-07 14:33N 49°27' E 000°39'1010.3
2017-Jan-07 13:33N 49°27' E 000°23'1313.1
2017-Jan-07 12:33N 49°27' E 000°03'6 5.4
2017-Jan-07 11:32N 49°28' W 000°06'0 0.0
2017-Jan-07 10:32N 49°28' W 000°06'0 0.0
2017-Jan-07 09:32N 49°28' W 000°06'0 0.0
2017-Jan-07 08:32N 49°28' W 000°06'0 0.0
2017-Jan-07 07:32N 49°28' W 000°06'0 0.0
2017-Jan-07 06:32N 49°28' W 000°06'3 3.2
2017-Jan-07 05:33N 49°30' W 000°10'1111.1
2017-Jan-07 04:33N 49°34' W 000°25'1110.8
2017-Jan-07 03:33N 49°39' W 000°41'1010.2
2017-Jan-07 02:33N 49°43' W 000°55'1010.4
2017-Jan-07 01:33N 49°47' W 001°09'1111.4
2017-Jan-07 00:33N 49°52' W 001°25'1110.9
2017-Jan-06 23:33N 49°54' W 001°42'1111.5
2017-Jan-06 22:33N 49°54' W 001°60'3310.8
2017-Jan-06 19:32N 49°49' W 002°50'1210.7
2017-Jan-06 18:25N 49°43' W 003°06'910.3
2017-Jan-06 17:33N 49°38' W 003°18'6610.8
2017-Jan-06 11:28N 49°06' W 004°46'1011.0
2017-Jan-06 10:33N 49°01' W 004°59'1212.2
2017-Jan-06 09:33N 48°55' W 005°15'1212.4
2017-Jan-06 08:33N 48°49' W 005°32'3013.0
2017-Jan-06 06:15N 48°23' W 005°55'  

Dump ship's entire track history